sensor_id;sensor_type;location;lat;lon;timestamp;P1;durP1;ratioP1;P2;durP2;ratioP2
62256;SDS011;48240;52.962;5.790;2022-08-21T04:39:02;2.95;;;1.50;;
62256;SDS011;48240;52.962;5.790;2022-08-21T04:41:28;3.13;;;1.77;;
62256;SDS011;48240;52.962;5.790;2022-08-21T04:43:55;4.07;;;1.70;;
62256;SDS011;48240;52.962;5.790;2022-08-21T04:46:21;2.40;;;1.52;;
62256;SDS011;48240;52.962;5.790;2022-08-21T04:48:48;3.97;;;1.73;;
62256;SDS011;48240;52.962;5.790;2022-08-21T04:53:50;4.13;;;1.80;;
62256;SDS011;48240;52.962;5.790;2022-08-21T04:56:29;3.55;;;2.10;;
62256;SDS011;48240;52.962;5.790;2022-08-21T04:58:57;4.22;;;2.20;;
62256;SDS011;48240;52.962;5.790;2022-08-21T05:01:24;3.63;;;2.13;;
62256;SDS011;48240;52.962;5.790;2022-08-21T05:03:52;3.63;;;2.08;;
62256;SDS011;48240;52.962;5.790;2022-08-21T05:06:20;4.30;;;2.30;;
62256;SDS011;48240;52.962;5.790;2022-08-21T05:08:47;7.18;;;2.20;;
62256;SDS011;48240;52.962;5.790;2022-08-21T05:11:14;3.42;;;1.90;;
62256;SDS011;48240;52.962;5.790;2022-08-21T05:13:40;4.05;;;1.92;;
62256;SDS011;48240;52.962;5.790;2022-08-21T05:16:07;5.13;;;2.17;;
62256;SDS011;48240;52.962;5.790;2022-08-21T05:18:33;4.28;;;2.03;;
62256;SDS011;48240;52.962;5.790;2022-08-21T05:20:59;3.67;;;2.35;;
62256;SDS011;48240;52.962;5.790;2022-08-21T05:23:25;3.90;;;2.20;;
62256;SDS011;48240;52.962;5.790;2022-08-21T05:25:52;3.88;;;2.30;;
62256;SDS011;48240;52.962;5.790;2022-08-21T05:28:18;5.03;;;2.55;;
62256;SDS011;48240;52.962;5.790;2022-08-21T05:30:44;6.25;;;2.40;;
62256;SDS011;48240;52.962;5.790;2022-08-21T05:33:10;5.25;;;2.20;;
62256;SDS011;48240;52.962;5.790;2022-08-21T05:35:37;3.25;;;2.10;;
62256;SDS011;48240;52.962;5.790;2022-08-21T05:38:03;3.15;;;2.15;;
62256;SDS011;48240;52.962;5.790;2022-08-21T05:40:30;3.90;;;2.03;;
62256;SDS011;48240;52.962;5.790;2022-08-21T05:42:57;2.83;;;2.22;;
62256;SDS011;48240;52.962;5.790;2022-08-21T05:45:25;6.05;;;2.28;;
62256;SDS011;48240;52.962;5.790;2022-08-21T05:47:51;17.55;;;3.65;;
62256;SDS011;48240;52.962;5.790;2022-08-21T05:50:17;11.55;;;5.90;;
62256;SDS011;48240;52.962;5.790;2022-08-21T05:52:43;7.68;;;3.78;;
62256;SDS011;48240;52.962;5.790;2022-08-21T05:55:09;11.25;;;4.07;;
62256;SDS011;48240;52.962;5.790;2022-08-21T05:57:35;10.65;;;4.22;;
62256;SDS011;48240;52.962;5.790;2022-08-21T06:00:03;11.63;;;4.20;;
62256;SDS011;48240;52.962;5.790;2022-08-21T06:02:29;10.20;;;4.13;;
62256;SDS011;48240;52.962;5.790;2022-08-21T06:04:56;9.10;;;3.72;;
62256;SDS011;48240;52.962;5.790;2022-08-21T06:07:22;12.57;;;3.65;;
62256;SDS011;48240;52.962;5.790;2022-08-21T06:09:48;9.93;;;3.67;;
62256;SDS011;48240;52.962;5.790;2022-08-21T06:12:14;14.32;;;4.03;;
62256;SDS011;48240;52.962;5.790;2022-08-21T06:14:41;9.80;;;3.95;;
62256;SDS011;48240;52.962;5.790;2022-08-21T06:17:09;9.98;;;3.72;;
62256;SDS011;48240;52.962;5.790;2022-08-21T06:19:36;10.50;;;4.10;;
62256;SDS011;48240;52.962;5.790;2022-08-21T06:22:02;9.63;;;4.10;;
62256;SDS011;48240;52.962;5.790;2022-08-21T06:24:29;12.40;;;3.53;;
62256;SDS011;48240;52.962;5.790;2022-08-21T06:26:55;12.55;;;4.00;;
62256;SDS011;48240;52.962;5.790;2022-08-21T06:29:21;9.30;;;3.88;;
62256;SDS011;48240;52.962;5.790;2022-08-21T06:31:48;13.25;;;3.97;;
62256;SDS011;48240;52.962;5.790;2022-08-21T06:34:14;10.75;;;3.67;;
62256;SDS011;48240;52.962;5.790;2022-08-21T06:36:40;10.43;;;3.92;;
62256;SDS011;48240;52.962;5.790;2022-08-21T06:39:07;14.43;;;4.07;;
62256;SDS011;48240;52.962;5.790;2022-08-21T06:41:33;10.43;;;3.95;;
62256;SDS011;48240;52.962;5.790;2022-08-21T06:43:59;10.85;;;3.85;;
62256;SDS011;48240;52.962;5.790;2022-08-21T06:46:26;10.98;;;3.53;;
62256;SDS011;48240;52.962;5.790;2022-08-21T06:48:52;10.32;;;4.03;;
62256;SDS011;48240;52.962;5.790;2022-08-21T06:51:18;12.10;;;3.63;;
62256;SDS011;48240;52.962;5.790;2022-08-21T06:53:45;9.95;;;3.65;;
62256;SDS011;48240;52.962;5.790;2022-08-21T06:56:11;9.02;;;3.72;;
62256;SDS011;48240;52.962;5.790;2022-08-21T06:58:37;9.73;;;3.53;;
62256;SDS011;48240;52.962;5.790;2022-08-21T07:01:04;13.43;;;3.80;;
62256;SDS011;48240;52.962;5.790;2022-08-21T07:03:31;10.90;;;4.35;;
62256;SDS011;48240;52.962;5.790;2022-08-21T07:05:58;8.10;;;3.13;;
62256;SDS011;48240;52.962;5.790;2022-08-21T07:08:24;10.20;;;2.97;;
62256;SDS011;48240;52.962;5.790;2022-08-21T07:10:51;11.98;;;3.80;;
62256;SDS011;48240;52.962;5.790;2022-08-21T07:13:17;14.57;;;4.40;;
62256;SDS011;48240;52.962;5.790;2022-08-21T07:15:44;8.23;;;2.95;;
62256;SDS011;48240;52.962;5.790;2022-08-21T07:18:10;9.00;;;3.03;;
62256;SDS011;48240;52.962;5.790;2022-08-21T07:20:38;14.23;;;3.90;;
62256;SDS011;48240;52.962;5.790;2022-08-21T07:23:05;12.38;;;3.03;;
62256;SDS011;48240;52.962;5.790;2022-08-21T07:25:31;12.82;;;3.22;;
62256;SDS011;48240;52.962;5.790;2022-08-21T07:27:58;10.63;;;3.45;;
62256;SDS011;48240;52.962;5.790;2022-08-21T07:30:24;9.43;;;2.85;;
62256;SDS011;48240;52.962;5.790;2022-08-21T07:32:50;10.43;;;3.25;;
62256;SDS011;48240;52.962;5.790;2022-08-21T07:35:17;11.40;;;3.00;;
62256;SDS011;48240;52.962;5.790;2022-08-21T07:37:44;7.60;;;2.50;;
62256;SDS011;48240;52.962;5.790;2022-08-21T07:40:10;7.18;;;2.55;;
62256;SDS011;48240;52.962;5.790;2022-08-21T07:42:40;8.95;;;2.88;;
62256;SDS011;48240;52.962;5.790;2022-08-21T07:45:06;12.25;;;2.63;;
62256;SDS011;48240;52.962;5.790;2022-08-21T07:47:32;10.10;;;2.80;;
62256;SDS011;48240;52.962;5.790;2022-08-21T07:49:58;10.30;;;2.67;;
62256;SDS011;48240;52.962;5.790;2022-08-21T07:52:25;11.02;;;2.45;;
62256;SDS011;48240;52.962;5.790;2022-08-21T07:54:51;8.18;;;2.33;;
62256;SDS011;48240;52.962;5.790;2022-08-21T07:57:17;10.65;;;2.45;;
62256;SDS011;48240;52.962;5.790;2022-08-21T07:59:43;11.27;;;2.60;;
62256;SDS011;48240;52.962;5.790;2022-08-21T08:02:09;10.02;;;3.17;;
62256;SDS011;48240;52.962;5.790;2022-08-21T08:04:35;13.15;;;2.75;;
62256;SDS011;48240;52.962;5.790;2022-08-21T08:07:01;8.85;;;2.33;;
62256;SDS011;48240;52.962;5.790;2022-08-21T08:09:27;12.48;;;2.47;;
62256;SDS011;48240;52.962;5.790;2022-08-21T08:11:53;11.30;;;2.67;;
62256;SDS011;48240;52.962;5.790;2022-08-21T08:14:19;13.10;;;2.40;;
62256;SDS011;48240;52.962;5.790;2022-08-21T08:16:45;12.70;;;2.83;;
62256;SDS011;48240;52.962;5.790;2022-08-21T08:19:12;15.15;;;2.90;;
62256;SDS011;48240;52.962;5.790;2022-08-21T08:21:38;9.63;;;2.67;;
62256;SDS011;48240;52.962;5.790;2022-08-21T08:24:04;11.57;;;2.30;;
62256;SDS011;48240;52.962;5.790;2022-08-21T08:26:30;9.77;;;2.50;;
62256;SDS011;48240;52.962;5.790;2022-08-21T08:28:56;10.10;;;2.65;;
62256;SDS011;48240;52.962;5.790;2022-08-21T08:31:22;9.20;;;2.33;;
62256;SDS011;48240;52.962;5.790;2022-08-21T08:33:48;9.98;;;2.75;;
62256;SDS011;48240;52.962;5.790;2022-08-21T08:36:15;8.73;;;2.33;;
62256;SDS011;48240;52.962;5.790;2022-08-21T08:38:42;12.43;;;2.80;;
62256;SDS011;48240;52.962;5.790;2022-08-21T08:41:16;9.00;;;2.60;;
62256;SDS011;48240;52.962;5.790;2022-08-21T08:43:53;9.95;;;2.78;;
62256;SDS011;48240;52.962;5.790;2022-08-21T08:46:23;12.50;;;2.50;;
62256;SDS011;48240;52.962;5.790;2022-08-21T08:51:20;9.15;;;2.63;;
62256;SDS011;48240;52.962;5.790;2022-08-21T08:53:52;6.75;;;1.98;;
62256;SDS011;48240;52.962;5.790;2022-08-21T08:56:22;12.43;;;2.88;;
62256;SDS011;48240;52.962;5.790;2022-08-21T08:58:51;11.37;;;2.83;;
62256;SDS011;48240;52.962;5.790;2022-08-21T09:01:18;8.15;;;2.20;;
62256;SDS011;48240;52.962;5.790;2022-08-21T09:03:46;11.30;;;2.60;;
62256;SDS011;48240;52.962;5.790;2022-08-21T09:09:06;13.23;;;2.50;;
62256;SDS011;48240;52.962;5.790;2022-08-21T09:12:19;9.93;;;2.53;;
62256;SDS011;48240;52.962;5.790;2022-08-21T09:14:47;8.18;;;1.90;;
62256;SDS011;48240;52.962;5.790;2022-08-21T09:22:57;6.25;;;1.88;;
62256;SDS011;48240;52.962;5.790;2022-08-21T09:25:26;10.25;;;3.40;;
62256;SDS011;48240;52.962;5.790;2022-08-21T09:27:54;12.20;;;2.60;;
62256;SDS011;48240;52.962;5.790;2022-08-21T09:30:23;11.63;;;2.53;;
62256;SDS011;48240;52.962;5.790;2022-08-21T09:32:50;6.20;;;2.03;;
62256;SDS011;48240;52.962;5.790;2022-08-21T09:35:17;12.77;;;2.45;;
62256;SDS011;48240;52.962;5.790;2022-08-21T09:37:58;12.20;;;2.75;;
62256;SDS011;48240;52.962;5.790;2022-08-21T09:42:56;10.90;;;2.20;;
62256;SDS011;48240;52.962;5.790;2022-08-21T09:47:49;9.57;;;2.08;;
62256;SDS011;48240;52.962;5.790;2022-08-21T09:50:25;7.22;;;2.20;;
62256;SDS011;48240;52.962;5.790;2022-08-21T09:52:56;9.63;;;2.20;;
62256;SDS011;48240;52.962;5.790;2022-08-21T09:55:39;7.55;;;2.53;;
62256;SDS011;48240;52.962;5.790;2022-08-21T09:58:32;8.68;;;2.60;;
62256;SDS011;48240;52.962;5.790;2022-08-21T10:00:59;11.23;;;2.55;;
62256;SDS011;48240;52.962;5.790;2022-08-21T10:03:26;10.63;;;2.70;;
62256;SDS011;48240;52.962;5.790;2022-08-21T10:08:19;11.25;;;2.60;;
62256;SDS011;48240;52.962;5.790;2022-08-21T10:10:45;12.20;;;2.50;;
62256;SDS011;48240;52.962;5.790;2022-08-21T10:13:27;6.35;;;2.30;;
62256;SDS011;48240;52.962;5.790;2022-08-21T10:18:29;8.85;;;2.53;;
62256;SDS011;48240;52.962;5.790;2022-08-21T10:25:57;12.00;;;2.53;;
62256;SDS011;48240;52.962;5.790;2022-08-21T10:31:06;9.05;;;2.40;;
62256;SDS011;48240;52.962;5.790;2022-08-21T10:36:02;9.57;;;2.30;;
62256;SDS011;48240;52.962;5.790;2022-08-21T10:38:51;7.88;;;2.30;;
62256;SDS011;48240;52.962;5.790;2022-08-21T10:46:53;8.55;;;2.35;;
62256;SDS011;48240;52.962;5.790;2022-08-21T10:52:20;9.50;;;2.22;;
62256;SDS011;48240;52.962;5.790;2022-08-21T10:55:04;10.65;;;2.58;;
62256;SDS011;48240;52.962;5.790;2022-08-21T11:00:08;11.27;;;2.38;;
62256;SDS011;48240;52.962;5.790;2022-08-21T11:08:17;12.55;;;2.60;;
62256;SDS011;48240;52.962;5.790;2022-08-21T11:18:22;11.07;;;2.90;;
62256;SDS011;48240;52.962;5.790;2022-08-21T11:23:45;13.90;;;3.25;;
62256;SDS011;48240;52.962;5.790;2022-08-21T11:26:14;16.77;;;4.10;;
62256;SDS011;48240;52.962;5.790;2022-08-21T11:28:46;13.85;;;3.78;;
62256;SDS011;48240;52.962;5.790;2022-08-21T11:33:47;13.00;;;2.97;;
62256;SDS011;48240;52.962;5.790;2022-08-21T11:36:27;9.73;;;2.40;;
62256;SDS011;48240;52.962;5.790;2022-08-21T11:38:57;9.00;;;2.28;;
62256;SDS011;48240;52.962;5.790;2022-08-21T11:41:30;9.90;;;2.15;;
62256;SDS011;48240;52.962;5.790;2022-08-21T11:51:31;9.70;;;2.15;;
62256;SDS011;48240;52.962;5.790;2022-08-21T11:56:26;8.55;;;1.85;;
62256;SDS011;48240;52.962;5.790;2022-08-21T11:58:55;8.15;;;1.95;;
62256;SDS011;48240;52.962;5.790;2022-08-21T12:01:25;9.52;;;3.67;;
62256;SDS011;48240;52.962;5.790;2022-08-21T12:03:54;6.90;;;2.25;;
62256;SDS011;48240;52.962;5.790;2022-08-21T12:06:34;6.22;;;2.30;;
62256;SDS011;48240;52.962;5.790;2022-08-21T12:09:06;8.00;;;2.40;;
62256;SDS011;48240;52.962;5.790;2022-08-21T12:11:43;8.45;;;2.15;;
62256;SDS011;48240;52.962;5.790;2022-08-21T12:14:13;8.32;;;2.17;;
62256;SDS011;48240;52.962;5.790;2022-08-21T12:16:40;8.52;;;2.15;;
62256;SDS011;48240;52.962;5.790;2022-08-21T12:19:14;6.93;;;2.20;;
62256;SDS011;48240;52.962;5.790;2022-08-21T12:21:58;7.57;;;1.90;;
62256;SDS011;48240;52.962;5.790;2022-08-21T12:26:58;7.75;;;2.22;;
62256;SDS011;48240;52.962;5.790;2022-08-21T12:32:00;6.20;;;2.10;;
62256;SDS011;48240;52.962;5.790;2022-08-21T12:34:30;6.60;;;2.00;;
62256;SDS011;48240;52.962;5.790;2022-08-21T12:37:02;7.68;;;1.75;;
62256;SDS011;48240;52.962;5.790;2022-08-21T12:39:30;6.65;;;1.90;;
62256;SDS011;48240;52.962;5.790;2022-08-21T12:41:59;8.68;;;1.60;;
62256;SDS011;48240;52.962;5.790;2022-08-21T12:44:48;10.23;;;2.47;;
62256;SDS011;48240;52.962;5.790;2022-08-21T12:47:14;8.48;;;2.00;;
62256;SDS011;48240;52.962;5.790;2022-08-21T12:50:24;8.65;;;1.77;;
62256;SDS011;48240;52.962;5.790;2022-08-21T12:52:31;7.63;;;2.13;;
62256;SDS011;48240;52.962;5.790;2022-08-21T12:54:58;9.75;;;2.10;;
62256;SDS011;48240;52.962;5.790;2022-08-21T12:57:25;8.48;;;1.80;;
62256;SDS011;48240;52.962;5.790;2022-08-21T13:00:03;5.93;;;1.73;;
62256;SDS011;48240;52.962;5.790;2022-08-21T13:02:33;7.55;;;1.80;;
62256;SDS011;48240;52.962;5.790;2022-08-21T13:05:05;9.70;;;2.40;;
62256;SDS011;48240;52.962;5.790;2022-08-21T13:07:32;10.07;;;1.95;;
62256;SDS011;48240;52.962;5.790;2022-08-21T13:10:06;10.93;;;1.83;;
62256;SDS011;48240;52.962;5.790;2022-08-21T13:12:33;9.80;;;2.13;;
62256;SDS011;48240;52.962;5.790;2022-08-21T13:15:04;6.20;;;1.50;;
62256;SDS011;48240;52.962;5.790;2022-08-21T13:17:32;8.13;;;1.60;;
62256;SDS011;48240;52.962;5.790;2022-08-21T13:20:03;2.85;;;1.33;;
62256;SDS011;48240;52.962;5.790;2022-08-21T13:22:30;7.85;;;1.65;;
62256;SDS011;48240;52.962;5.790;2022-08-21T13:24:56;6.95;;;1.90;;
62256;SDS011;48240;52.962;5.790;2022-08-21T13:27:27;8.50;;;1.60;;
62256;SDS011;48240;52.962;5.790;2022-08-21T13:30:01;9.77;;;1.77;;
62256;SDS011;48240;52.962;5.790;2022-08-21T13:32:27;9.15;;;1.80;;
62256;SDS011;48240;52.962;5.790;2022-08-21T13:34:56;6.15;;;1.55;;
62256;SDS011;48240;52.962;5.790;2022-08-21T13:37:22;6.57;;;1.45;;
62256;SDS011;48240;52.962;5.790;2022-08-21T13:39:50;6.85;;;2.03;;
62256;SDS011;48240;52.962;5.790;2022-08-21T13:44:47;5.57;;;1.65;;
62256;SDS011;48240;52.962;5.790;2022-08-21T13:47:15;5.53;;;1.40;;
62256;SDS011;48240;52.962;5.790;2022-08-21T13:49:48;6.07;;;1.50;;
62256;SDS011;48240;52.962;5.790;2022-08-21T13:52:25;8.10;;;1.60;;
62256;SDS011;48240;52.962;5.790;2022-08-21T13:55:07;8.13;;;2.10;;
62256;SDS011;48240;52.962;5.790;2022-08-21T13:57:34;6.45;;;1.90;;
62256;SDS011;48240;52.962;5.790;2022-08-21T14:02:40;8.73;;;1.40;;
62256;SDS011;48240;52.962;5.790;2022-08-21T14:05:06;6.18;;;1.30;;
62256;SDS011;48240;52.962;5.790;2022-08-21T14:07:36;6.57;;;1.60;;
62256;SDS011;48240;52.962;5.790;2022-08-21T14:10:20;6.10;;;1.60;;
62256;SDS011;48240;52.962;5.790;2022-08-21T14:13:03;8.30;;;2.00;;
62256;SDS011;48240;52.962;5.790;2022-08-21T14:15:31;4.93;;;1.42;;
62256;SDS011;48240;52.962;5.790;2022-08-21T14:18:13;6.82;;;1.33;;
62256;SDS011;48240;52.962;5.790;2022-08-21T14:20:40;5.93;;;1.30;;
62256;SDS011;48240;52.962;5.790;2022-08-21T14:23:07;5.25;;;1.40;;
62256;SDS011;48240;52.962;5.790;2022-08-21T14:28:19;5.15;;;1.73;;
62256;SDS011;48240;52.962;5.790;2022-08-21T14:30:45;6.97;;;1.40;;
62256;SDS011;48240;52.962;5.790;2022-08-21T14:33:13;4.38;;;1.17;;
62256;SDS011;48240;52.962;5.790;2022-08-21T14:35:43;3.83;;;1.15;;
62256;SDS011;48240;52.962;5.790;2022-08-21T14:38:16;4.15;;;1.48;;
62256;SDS011;48240;52.962;5.790;2022-08-21T14:40:43;5.68;;;1.70;;
62256;SDS011;48240;52.962;5.790;2022-08-21T14:43:10;8.02;;;1.60;;
62256;SDS011;48240;52.962;5.790;2022-08-21T14:45:37;5.82;;;1.38;;
62256;SDS011;48240;52.962;5.790;2022-08-21T14:48:06;5.95;;;1.50;;
62256;SDS011;48240;52.962;5.790;2022-08-21T14:50:32;4.50;;;1.10;;
62256;SDS011;48240;52.962;5.790;2022-08-21T14:52:59;5.15;;;1.45;;
62256;SDS011;48240;52.962;5.790;2022-08-21T14:55:25;7.90;;;1.50;;
62256;SDS011;48240;52.962;5.790;2022-08-21T14:57:52;4.82;;;1.25;;
62256;SDS011;48240;52.962;5.790;2022-08-21T15:00:20;9.45;;;1.40;;
62256;SDS011;48240;52.962;5.790;2022-08-21T15:02:48;4.25;;;1.30;;
62256;SDS011;48240;52.962;5.790;2022-08-21T15:05:14;6.85;;;1.38;;
62256;SDS011;48240;52.962;5.790;2022-08-21T15:07:40;5.97;;;1.83;;
62256;SDS011;48240;52.962;5.790;2022-08-21T15:10:07;5.57;;;1.60;;
62256;SDS011;48240;52.962;5.790;2022-08-21T15:12:33;7.13;;;1.50;;
62256;SDS011;48240;52.962;5.790;2022-08-21T15:14:59;8.10;;;1.60;;
62256;SDS011;48240;52.962;5.790;2022-08-21T15:17:25;6.82;;;1.30;;
62256;SDS011;48240;52.962;5.790;2022-08-21T15:19:51;9.15;;;1.38;;
62256;SDS011;48240;52.962;5.790;2022-08-21T15:22:17;6.72;;;1.73;;
62256;SDS011;48240;52.962;5.790;2022-08-21T15:24:44;7.50;;;1.58;;
62256;SDS011;48240;52.962;5.790;2022-08-21T15:27:10;8.15;;;1.60;;
62256;SDS011;48240;52.962;5.790;2022-08-21T15:29:38;10.15;;;1.75;;
62256;SDS011;48240;52.962;5.790;2022-08-21T15:32:17;7.75;;;2.00;;
62256;SDS011;48240;52.962;5.790;2022-08-21T15:34:44;6.38;;;1.73;;
62256;SDS011;48240;52.962;5.790;2022-08-21T15:37:10;7.45;;;1.92;;
62256;SDS011;48240;52.962;5.790;2022-08-21T15:39:36;6.45;;;1.65;;
62256;SDS011;48240;52.962;5.790;2022-08-21T15:42:02;7.75;;;1.70;;
62256;SDS011;48240;52.962;5.790;2022-08-21T15:44:31;6.72;;;1.60;;
62256;SDS011;48240;52.962;5.790;2022-08-21T15:46:58;11.25;;;1.70;;
62256;SDS011;48240;52.962;5.790;2022-08-21T15:49:24;7.82;;;1.40;;
62256;SDS011;48240;52.962;5.790;2022-08-21T15:51:50;7.03;;;1.70;;
62256;SDS011;48240;52.962;5.790;2022-08-21T15:54:16;8.00;;;1.60;;
62256;SDS011;48240;52.962;5.790;2022-08-21T15:56:44;6.55;;;1.33;;
62256;SDS011;48240;52.962;5.790;2022-08-21T15:59:13;6.38;;;1.60;;
62256;SDS011;48240;52.962;5.790;2022-08-21T16:01:40;7.68;;;1.83;;
62256;SDS011;48240;52.962;5.790;2022-08-21T16:04:07;7.70;;;1.80;;
62256;SDS011;48240;52.962;5.790;2022-08-21T16:06:33;8.82;;;1.58;;
62256;SDS011;48240;52.962;5.790;2022-08-21T16:08:59;8.77;;;1.60;;
62256;SDS011;48240;52.962;5.790;2022-08-21T16:11:25;7.75;;;1.48;;
62256;SDS011;48240;52.962;5.790;2022-08-21T16:13:52;9.18;;;1.70;;
62256;SDS011;48240;52.962;5.790;2022-08-21T16:16:19;8.68;;;1.75;;
62256;SDS011;48240;52.962;5.790;2022-08-21T16:18:46;6.93;;;2.03;;
62256;SDS011;48240;52.962;5.790;2022-08-21T16:21:13;7.22;;;2.38;;
62256;SDS011;48240;52.962;5.790;2022-08-21T16:23:39;6.97;;;1.83;;
62256;SDS011;48240;52.962;5.790;2022-08-21T16:26:06;6.25;;;1.52;;
62256;SDS011;48240;52.962;5.790;2022-08-21T16:28:33;7.65;;;1.63;;
62256;SDS011;48240;52.962;5.790;2022-08-21T16:30:59;8.60;;;1.80;;
62256;SDS011;48240;52.962;5.790;2022-08-21T16:33:29;9.48;;;2.13;;
62256;SDS011;48240;52.962;5.790;2022-08-21T16:35:57;7.43;;;1.63;;
62256;SDS011;48240;52.962;5.790;2022-08-21T16:38:24;6.13;;;1.65;;
62256;SDS011;48240;52.962;5.790;2022-08-21T16:40:51;3.67;;;1.48;;
62256;SDS011;48240;52.962;5.790;2022-08-21T16:43:17;8.98;;;1.80;;
62256;SDS011;48240;52.962;5.790;2022-08-21T16:45:45;7.07;;;1.42;;
62256;SDS011;48240;52.962;5.790;2022-08-21T16:48:11;9.70;;;1.90;;
62256;SDS011;48240;52.962;5.790;2022-08-21T16:50:37;9.25;;;2.05;;
62256;SDS011;48240;52.962;5.790;2022-08-21T16:53:03;4.50;;;1.55;;
62256;SDS011;48240;52.962;5.790;2022-08-21T16:55:30;7.80;;;1.80;;
62256;SDS011;48240;52.962;5.790;2022-08-21T16:57:57;6.75;;;1.60;;
62256;SDS011;48240;52.962;5.790;2022-08-21T17:00:25;8.23;;;2.03;;
62256;SDS011;48240;52.962;5.790;2022-08-21T17:02:52;6.90;;;1.73;;
62256;SDS011;48240;52.962;5.790;2022-08-21T17:05:19;7.68;;;1.70;;
62256;SDS011;48240;52.962;5.790;2022-08-21T17:07:45;11.68;;;1.50;;
62256;SDS011;48240;52.962;5.790;2022-08-21T17:10:13;6.43;;;1.75;;
62256;SDS011;48240;52.962;5.790;2022-08-21T17:12:40;8.73;;;1.67;;
62256;SDS011;48240;52.962;5.790;2022-08-21T17:15:08;6.47;;;1.55;;
62256;SDS011;48240;52.962;5.790;2022-08-21T17:17:37;12.02;;;2.08;;
62256;SDS011;48240;52.962;5.790;2022-08-21T17:20:03;8.40;;;1.70;;
62256;SDS011;48240;52.962;5.790;2022-08-21T17:22:29;7.65;;;1.58;;
62256;SDS011;48240;52.962;5.790;2022-08-21T17:24:55;6.32;;;1.63;;
62256;SDS011;48240;52.962;5.790;2022-08-21T17:27:22;6.10;;;2.08;;
62256;SDS011;48240;52.962;5.790;2022-08-21T17:29:49;8.70;;;1.90;;
62256;SDS011;48240;52.962;5.790;2022-08-21T17:32:15;5.10;;;1.50;;
62256;SDS011;48240;52.962;5.790;2022-08-21T17:34:43;5.20;;;1.85;;
62256;SDS011;48240;52.962;5.790;2022-08-21T17:37:09;7.45;;;1.65;;
62256;SDS011;48240;52.962;5.790;2022-08-21T17:39:35;5.55;;;1.70;;
62256;SDS011;48240;52.962;5.790;2022-08-21T17:42:06;6.15;;;1.83;;
62256;SDS011;48240;52.962;5.790;2022-08-21T17:44:35;9.23;;;1.92;;
62256;SDS011;48240;52.962;5.790;2022-08-21T17:47:01;6.40;;;1.70;;
62256;SDS011;48240;52.962;5.790;2022-08-21T17:49:28;5.57;;;1.98;;
62256;SDS011;48240;52.962;5.790;2022-08-21T17:51:54;4.00;;;1.40;;
62256;SDS011;48240;52.962;5.790;2022-08-21T17:54:20;8.88;;;1.98;;
62256;SDS011;48240;52.962;5.790;2022-08-21T17:56:46;10.65;;;1.98;;
62256;SDS011;48240;52.962;5.790;2022-08-21T17:59:12;7.57;;;2.20;;
62256;SDS011;48240;52.962;5.790;2022-08-21T18:01:41;7.90;;;1.90;;
62256;SDS011;48240;52.962;5.790;2022-08-21T18:04:08;6.07;;;2.05;;
62256;SDS011;48240;52.962;5.790;2022-08-21T18:06:34;20.83;;;2.17;;
62256;SDS011;48240;52.962;5.790;2022-08-21T18:09:00;6.75;;;2.00;;
62256;SDS011;48240;52.962;5.790;2022-08-21T18:11:28;8.07;;;1.80;;
62256;SDS011;48240;52.962;5.790;2022-08-21T18:13:54;9.55;;;2.00;;
62256;SDS011;48240;52.962;5.790;2022-08-21T18:16:25;5.85;;;1.92;;
62256;SDS011;48240;52.962;5.790;2022-08-21T18:18:51;7.90;;;2.10;;
62256;SDS011;48240;52.962;5.790;2022-08-21T18:21:17;6.72;;;1.90;;
62256;SDS011;48240;52.962;5.790;2022-08-21T18:23:44;7.32;;;1.85;;
62256;SDS011;48240;52.962;5.790;2022-08-21T18:26:10;7.93;;;2.15;;
62256;SDS011;48240;52.962;5.790;2022-08-21T18:28:37;5.35;;;1.67;;
62256;SDS011;48240;52.962;5.790;2022-08-21T18:31:06;7.57;;;1.90;;
62256;SDS011;48240;52.962;5.790;2022-08-21T18:33:33;6.55;;;2.03;;
62256;SDS011;48240;52.962;5.790;2022-08-21T18:35:59;5.78;;;2.30;;
62256;SDS011;48240;52.962;5.790;2022-08-21T18:38:26;7.65;;;2.30;;
62256;SDS011;48240;52.962;5.790;2022-08-21T18:40:52;8.50;;;2.20;;
62256;SDS011;48240;52.962;5.790;2022-08-21T18:43:19;7.07;;;2.17;;
62256;SDS011;48240;52.962;5.790;2022-08-21T18:45:46;7.35;;;2.17;;
62256;SDS011;48240;52.962;5.790;2022-08-21T18:48:13;9.20;;;2.30;;
62256;SDS011;48240;52.962;5.790;2022-08-21T18:50:41;8.65;;;2.15;;
62256;SDS011;48240;52.962;5.790;2022-08-21T18:53:08;7.05;;;2.20;;
62256;SDS011;48240;52.962;5.790;2022-08-21T18:55:34;5.95;;;2.13;;
62256;SDS011;48240;52.962;5.790;2022-08-21T18:58:01;7.95;;;2.10;;
62256;SDS011;48240;52.962;5.790;2022-08-21T19:00:30;5.65;;;2.17;;
62256;SDS011;48240;52.962;5.790;2022-08-21T19:02:57;5.30;;;2.33;;
62256;SDS011;48240;52.962;5.790;2022-08-21T19:05:23;9.25;;;2.53;;
62256;SDS011;48240;52.962;5.790;2022-08-21T19:07:50;7.18;;;2.38;;
62256;SDS011;48240;52.962;5.790;2022-08-21T19:10:17;6.82;;;2.58;;
62256;SDS011;48240;52.962;5.790;2022-08-21T19:12:43;7.68;;;2.13;;
62256;SDS011;48240;52.962;5.790;2022-08-21T19:15:12;7.50;;;2.45;;
62256;SDS011;48240;52.962;5.790;2022-08-21T19:17:38;12.25;;;2.85;;
62256;SDS011;48240;52.962;5.790;2022-08-21T19:20:07;6.85;;;2.58;;
62256;SDS011;48240;52.962;5.790;2022-08-21T19:22:33;7.55;;;2.60;;
62256;SDS011;48240;52.962;5.790;2022-08-21T19:24:59;10.73;;;2.70;;
62256;SDS011;48240;52.962;5.790;2022-08-21T19:27:25;7.13;;;2.58;;
62256;SDS011;48240;52.962;5.790;2022-08-21T19:29:52;6.47;;;2.70;;
62256;SDS011;48240;52.962;5.790;2022-08-21T19:32:18;5.35;;;2.40;;
62256;SDS011;48240;52.962;5.790;2022-08-21T19:34:44;7.90;;;2.65;;
62256;SDS011;48240;52.962;5.790;2022-08-21T19:37:10;5.80;;;2.50;;
62256;SDS011;48240;52.962;5.790;2022-08-21T19:39:38;6.72;;;2.20;;
62256;SDS011;48240;52.962;5.790;2022-08-21T19:42:05;7.55;;;2.50;;
62256;SDS011;48240;52.962;5.790;2022-08-21T19:44:31;7.30;;;2.45;;
62256;SDS011;48240;52.962;5.790;2022-08-21T19:46:58;5.43;;;2.30;;
62256;SDS011;48240;52.962;5.790;2022-08-21T19:49:28;8.43;;;2.35;;
62256;SDS011;48240;52.962;5.790;2022-08-21T19:51:55;9.80;;;2.58;;
62256;SDS011;48240;52.962;5.790;2022-08-21T19:54:23;8.38;;;2.85;;
62256;SDS011;48240;52.962;5.790;2022-08-21T19:56:51;7.22;;;2.40;;
62256;SDS011;48240;52.962;5.790;2022-08-21T19:59:18;6.30;;;2.45;;
62256;SDS011;48240;52.962;5.790;2022-08-21T20:01:45;7.68;;;2.45;;
62256;SDS011;48240;52.962;5.790;2022-08-21T20:04:11;6.00;;;2.38;;
62256;SDS011;48240;52.962;5.790;2022-08-21T20:06:37;7.00;;;2.85;;
62256;SDS011;48240;52.962;5.790;2022-08-21T20:09:04;8.32;;;2.63;;
62256;SDS011;48240;52.962;5.790;2022-08-21T20:11:32;6.32;;;2.60;;
62256;SDS011;48240;52.962;5.790;2022-08-21T20:14:00;6.53;;;2.75;;
62256;SDS011;48240;52.962;5.790;2022-08-21T20:16:27;7.15;;;2.70;;
62256;SDS011;48240;52.962;5.790;2022-08-21T20:18:53;7.05;;;2.65;;
62256;SDS011;48240;52.962;5.790;2022-08-21T20:21:19;10.00;;;2.67;;
62256;SDS011;48240;52.962;5.790;2022-08-21T20:23:45;8.02;;;3.13;;
62256;SDS011;48240;52.962;5.790;2022-08-21T20:26:12;7.75;;;2.88;;
62256;SDS011;48240;52.962;5.790;2022-08-21T20:28:38;8.50;;;3.08;;
62256;SDS011;48240;52.962;5.790;2022-08-21T20:31:04;8.30;;;2.85;;
62256;SDS011;48240;52.962;5.790;2022-08-21T20:33:30;6.50;;;2.78;;
62256;SDS011;48240;52.962;5.790;2022-08-21T20:35:57;5.57;;;2.58;;
62256;SDS011;48240;52.962;5.790;2022-08-21T20:38:24;5.57;;;2.53;;
62256;SDS011;48240;52.962;5.790;2022-08-21T20:40:50;6.22;;;2.50;;
62256;SDS011;48240;52.962;5.790;2022-08-21T20:43:18;4.95;;;2.50;;
62256;SDS011;48240;52.962;5.790;2022-08-21T20:45:44;7.07;;;2.83;;
62256;SDS011;48240;52.962;5.790;2022-08-21T20:48:13;7.53;;;2.60;;
62256;SDS011;48240;52.962;5.790;2022-08-21T20:50:41;7.95;;;2.63;;
62256;SDS011;48240;52.962;5.790;2022-08-21T20:55:40;8.52;;;2.85;;
62256;SDS011;48240;52.962;5.790;2022-08-21T20:58:10;7.07;;;2.85;;